createdAt,value
2023-05-25T00:01:37.875Z,6.03
2023-05-25T00:04:05.405Z,8.93
2023-05-25T00:06:32.960Z,7.60
2023-05-25T00:09:01.644Z,6.37
2023-05-25T00:11:28.986Z,6.37
2023-05-25T00:13:56.251Z,8.67
2023-05-25T00:16:23.589Z,8.63
2023-05-25T00:18:50.987Z,9.27
2023-05-25T00:21:18.346Z,8.17
2023-05-25T00:23:45.658Z,13.77
2023-05-25T00:26:14.405Z,16.57
2023-05-25T00:28:41.658Z,7.40
2023-05-25T00:31:09.042Z,6.60
2023-05-25T00:33:36.998Z,5.20
2023-05-25T00:36:05.497Z,11.50
2023-05-25T00:38:32.900Z,10.13
2023-05-25T00:41:00.212Z,10.90
2023-05-25T00:43:28.821Z,8.67
2023-05-25T00:45:56.544Z,7.63
2023-05-25T00:48:24.666Z,11.17
2023-05-25T00:50:54.464Z,10.77
2023-05-25T00:53:21.858Z,9.07
2023-05-25T00:55:50.976Z,12.40
2023-05-25T00:58:21.279Z,6.77
2023-05-25T01:00:51.548Z,10.90
2023-05-25T01:03:21.405Z,16.47
2023-05-25T01:05:52.122Z,11.07
2023-05-25T01:08:20.553Z,9.17
2023-05-25T01:10:49.382Z,6.80
2023-05-25T01:13:18.091Z,7.50
2023-05-25T01:15:45.977Z,12.43
2023-05-25T01:18:15.857Z,12.40
2023-05-25T01:21:00.548Z,12.50
2023-05-25T01:23:31.706Z,10.37
2023-05-25T01:26:00.573Z,11.40
2023-05-25T01:28:30.732Z,12.83
2023-05-25T01:30:58.186Z,11.50
2023-05-25T01:33:25.853Z,13.70
2023-05-25T01:35:53.280Z,15.77
2023-05-25T01:38:22.051Z,12.93
2023-05-25T01:40:49.502Z,13.37
2023-05-25T01:43:17.155Z,11.33
2023-05-25T01:45:44.680Z,10.93
2023-05-25T01:48:16.695Z,10.60
2023-05-25T01:50:49.591Z,9.80
2023-05-25T01:53:19.703Z,10.93
2023-05-25T01:55:54.466Z,10.40
2023-05-25T01:58:22.948Z,8.83
2023-05-25T02:00:51.586Z,11.70
2023-05-25T02:03:19.216Z,11.63
2023-05-25T02:05:47.876Z,11.47
2023-05-25T02:08:15.188Z,12.43
2023-05-25T02:10:42.573Z,11.47
2023-05-25T02:13:11.354Z,8.60
2023-05-25T02:15:38.699Z,9.80
2023-05-25T02:18:06.175Z,7.07
2023-05-25T02:20:33.500Z,8.40
2023-05-25T02:23:00.842Z,12.27
2023-05-25T02:25:28.194Z,11.17
2023-05-25T02:27:55.536Z,11.23
2023-05-25T02:30:24.255Z,10.20
2023-05-25T02:32:55.391Z,11.70
2023-05-25T02:35:22.784Z,8.97
2023-05-25T02:37:51.253Z,10.13
2023-05-25T02:40:18.895Z,8.83
2023-05-25T02:42:46.218Z,8.83
2023-05-25T02:45:13.568Z,8.63
2023-05-25T02:47:43.021Z,11.67
2023-05-25T02:50:10.885Z,9.23
2023-05-25T02:52:43.544Z,10.97
2023-05-25T02:55:11.091Z,10.47
2023-05-25T02:57:39.651Z,9.50
2023-05-25T03:00:09.051Z,9.03
2023-05-25T03:02:36.782Z,7.00
2023-05-25T03:05:06.380Z,11.13
2023-05-25T03:07:34.970Z,9.47
2023-05-25T03:10:02.311Z,17.50
2023-05-25T03:12:30.082Z,14.17
2023-05-25T03:14:57.543Z,9.57
2023-05-25T03:17:24.878Z,10.90
2023-05-25T03:19:52.669Z,8.63
2023-05-25T03:22:21.510Z,10.93
2023-05-25T03:24:48.841Z,9.10
2023-05-25T03:27:16.207Z,8.13
2023-05-25T03:29:43.568Z,9.00
2023-05-25T03:32:10.910Z,9.93
2023-05-25T03:34:39.200Z,9.30
2023-05-25T03:37:07.342Z,9.43
2023-05-25T03:39:36.705Z,11.03
2023-05-25T03:42:03.992Z,9.30
2023-05-25T03:44:31.464Z,10.43
2023-05-25T03:46:59.114Z,8.93
2023-05-25T03:49:26.361Z,12.47
2023-05-25T03:51:53.741Z,10.13
2023-05-25T03:54:21.030Z,7.03
2023-05-25T03:59:35.488Z,11.63
2023-05-25T04:02:03.878Z,8.93
2023-05-25T04:04:31.148Z,8.33
2023-05-25T04:06:59.054Z,12.50
2023-05-25T04:09:26.503Z,12.23
2023-05-25T04:11:55.130Z,13.17
2023-05-25T04:14:22.407Z,11.53
2023-05-25T04:16:49.951Z,9.57
2023-05-25T04:19:17.480Z,12.30
2023-05-25T04:21:44.927Z,12.00
2023-05-25T04:24:12.339Z,10.80
2023-05-25T04:26:40.417Z,9.37
2023-05-25T04:29:10.282Z,9.83
2023-05-25T04:31:57.561Z,13.00
2023-05-25T04:34:47.840Z,11.90
2023-05-25T04:37:20.319Z,9.57
2023-05-25T04:39:47.826Z,13.23
2023-05-25T04:42:15.208Z,11.03
2023-05-25T04:44:44.973Z,9.00
2023-05-25T04:47:12.367Z,17.80
2023-05-25T04:49:39.615Z,12.40
2023-05-25T04:52:08.790Z,14.13
2023-05-25T04:54:36.689Z,17.50
2023-05-25T04:57:04.102Z,9.93
2023-05-25T04:59:32.317Z,12.43
2023-05-25T05:02:01.706Z,14.67
2023-05-25T05:04:29.072Z,11.73
2023-05-25T05:06:58.821Z,13.57
2023-05-25T05:09:28.355Z,11.30
2023-05-25T05:11:57.724Z,12.47
2023-05-25T05:14:25.076Z,14.00
2023-05-25T05:16:53.488Z,13.23
2023-05-25T05:19:22.903Z,10.63
2023-05-25T05:21:50.246Z,16.27
2023-05-25T05:24:18.644Z,15.67
2023-05-25T05:26:57.812Z,25.30
2023-05-25T05:29:42.795Z,15.87
2023-05-25T05:32:10.157Z,13.53
2023-05-25T05:34:39.276Z,14.53
2023-05-25T05:37:13.923Z,13.83
2023-05-25T05:39:41.255Z,12.63
2023-05-25T05:42:08.625Z,11.00
2023-05-25T05:44:36.173Z,9.43
2023-05-25T05:47:03.506Z,9.07
2023-05-25T05:49:31.396Z,10.63
2023-05-25T05:52:01.457Z,10.07
2023-05-25T05:54:28.901Z,9.90
2023-05-25T05:56:59.404Z,9.93
2023-05-25T05:59:26.723Z,8.30
2023-05-25T06:01:54.153Z,6.10
2023-05-25T06:04:21.833Z,10.23
2023-05-25T06:06:49.106Z,11.27
2023-05-25T06:09:18.324Z,4.67
2023-05-25T06:11:45.660Z,10.20
2023-05-25T06:14:13.626Z,7.37
2023-05-25T06:16:41.936Z,9.40
2023-05-25T06:19:09.309Z,10.80
2023-05-25T06:21:36.607Z,13.40
2023-05-25T06:24:03.981Z,7.47
2023-05-25T06:26:32.647Z,11.20
2023-05-25T06:28:59.915Z,11.13
2023-05-25T06:31:27.304Z,8.23
2023-05-25T06:33:55.263Z,11.63
2023-05-25T06:36:23.072Z,10.13
2023-05-25T06:38:51.306Z,5.87
2023-05-25T06:41:19.202Z,10.30
2023-05-25T06:43:48.244Z,11.83
2023-05-25T06:46:24.260Z,9.23
2023-05-25T06:48:52.081Z,12.67
2023-05-25T06:51:19.522Z,8.77
2023-05-25T06:57:42.170Z,6.60
2023-05-25T07:00:11.978Z,11.23
2023-05-25T07:02:39.385Z,11.60
2023-05-25T07:05:07.251Z,8.33
2023-05-25T07:07:34.787Z,14.37
2023-05-25T07:10:02.495Z,5.77
2023-05-25T07:12:45.485Z,12.57
2023-05-25T07:15:14.229Z,8.63
2023-05-25T07:17:41.889Z,10.07
2023-05-25T07:20:09.922Z,8.63
2023-05-25T07:29:13.914Z,5.60
2023-05-25T07:31:42.823Z,8.83
2023-05-25T07:34:10.222Z,8.40
2023-05-25T07:36:37.495Z,6.57
2023-05-25T07:39:04.918Z,7.30
2023-05-25T07:41:32.230Z,8.17
2023-05-25T08:57:55.534Z,5.83
2023-05-25T09:00:26.005Z,9.40
2023-05-25T09:02:58.801Z,7.50
2023-05-25T09:05:26.664Z,7.93
2023-05-25T09:29:13.925Z,8.50
2023-05-25T09:31:41.477Z,8.50
2023-05-25T09:34:12.326Z,9.47
2023-05-25T09:36:52.539Z,13.17
2023-05-25T09:42:49.325Z,7.73
2023-05-25T09:45:18.149Z,10.30
2023-05-25T09:47:45.468Z,9.80
2023-05-25T09:50:12.778Z,6.00
2023-05-25T09:52:40.086Z,8.03
2023-05-25T09:55:09.725Z,4.80
2023-05-25T09:57:37.203Z,10.33
2023-05-25T10:00:04.641Z,6.10
2023-05-25T10:02:40.349Z,6.50
2023-05-25T10:05:07.963Z,7.17
2023-05-25T10:07:41.707Z,11.47
2023-05-25T10:10:27.685Z,5.13
2023-05-25T10:12:56.316Z,10.63
2023-05-25T10:15:23.921Z,5.90
2023-05-25T10:17:54.546Z,8.93
2023-05-25T10:20:23.346Z,14.03
2023-05-25T10:22:53.135Z,9.87
2023-05-25T10:28:04.871Z,6.47
2023-05-25T10:30:33.423Z,7.80
2023-05-25T10:33:03.178Z,6.70
2023-05-25T10:35:42.492Z,10.40
2023-05-25T10:38:26.180Z,7.60
2023-05-25T10:41:10.015Z,8.80
2023-05-25T10:43:37.931Z,8.97
2023-05-25T10:46:05.972Z,9.20
2023-05-25T10:48:47.557Z,7.40
2023-05-25T10:51:15.037Z,9.50
2023-05-25T10:53:44.705Z,15.00
2023-05-25T10:56:18.425Z,10.40
2023-05-25T10:58:47.034Z,6.00
2023-05-25T11:01:15.489Z,9.97
2023-05-25T11:03:51.254Z,9.23
2023-05-25T11:10:09.496Z,9.20
2023-05-25T11:12:36.775Z,7.53
2023-05-25T11:15:14.262Z,10.53
2023-05-25T11:17:58.380Z,9.40
2023-05-25T11:20:28.097Z,12.43
2023-05-25T11:22:57.406Z,14.00
2023-05-25T11:25:37.784Z,8.00
2023-05-25T11:28:05.824Z,7.90
2023-05-25T11:30:33.428Z,9.87
2023-05-25T11:33:02.709Z,10.77
2023-05-25T11:35:37.495Z,11.27
2023-05-25T11:38:11.099Z,6.63
2023-05-25T11:40:47.466Z,7.17
2023-05-25T11:43:15.173Z,8.73
2023-05-25T11:45:42.424Z,12.47
2023-05-25T11:48:14.009Z,10.30
2023-05-25T11:50:42.840Z,10.53
2023-05-25T11:53:10.256Z,6.50
2023-05-25T11:55:37.986Z,11.43
2023-05-25T11:58:05.430Z,11.63
2023-05-25T12:00:32.753Z,10.30
2023-05-25T12:03:00.142Z,11.40
2023-05-25T12:05:37.629Z,12.67
2023-05-25T12:08:06.291Z,6.93
2023-05-25T12:10:33.590Z,14.80
2023-05-25T12:13:04.009Z,4.47
2023-05-25T12:15:36.985Z,12.40
2023-05-25T12:18:04.444Z,14.10
2023-05-25T12:20:31.852Z,13.77
2023-05-25T12:22:59.364Z,14.57
2023-05-25T12:25:38.578Z,7.13
2023-05-25T12:31:21.822Z,7.93
2023-05-25T12:34:03.066Z,11.27
2023-05-25T12:36:37.016Z,7.77
2023-05-25T12:39:04.787Z,6.90
2023-05-25T12:41:42.887Z,10.10
2023-05-25T12:51:06.259Z,4.70
2023-05-25T12:53:46.744Z,5.43
2023-05-25T12:56:29.595Z,13.17
2023-05-25T12:59:14.603Z,19.37
2023-05-25T13:01:41.917Z,5.33
2023-05-25T13:04:12.648Z,12.60
2023-05-25T13:06:39.892Z,9.90
2023-05-25T13:09:07.262Z,9.33
2023-05-25T13:11:34.588Z,4.80
2023-05-25T13:17:36.527Z,7.93
2023-05-25T13:20:04.318Z,11.23
2023-05-25T13:22:31.584Z,5.17
2023-05-25T13:24:58.869Z,5.80
2023-05-25T13:27:26.591Z,12.20
2023-05-25T13:29:55.228Z,13.60
2023-05-25T13:32:35.701Z,12.50
2023-05-25T13:35:03.511Z,14.47
2023-05-25T13:37:30.910Z,8.53
2023-05-25T13:39:58.591Z,8.70
2023-05-25T13:45:39.237Z,9.20
2023-05-25T14:19:35.819Z,22.43
2023-05-25T14:22:13.407Z,18.47
2023-05-25T14:24:42.003Z,21.17
2023-05-25T14:27:09.605Z,21.43
2023-05-25T14:29:37.019Z,25.57
2023-05-25T14:34:55.128Z,15.57
2023-05-25T14:37:22.596Z,14.27
2023-05-25T14:39:50.586Z,17.27
2023-05-25T14:42:18.220Z,15.63
2023-05-25T14:44:45.483Z,11.97
2023-05-25T14:47:35.471Z,14.30
2023-05-25T14:53:55.473Z,16.43
2023-05-25T14:56:22.896Z,20.60
2023-05-25T14:58:50.338Z,12.90
2023-05-25T15:01:17.732Z,12.83
2023-05-25T15:03:45.498Z,16.77
2023-05-25T15:09:12.375Z,16.60
2023-05-25T15:11:39.715Z,13.47
2023-05-25T15:14:06.977Z,16.53
2023-05-25T15:16:34.389Z,18.63
2023-05-25T15:19:01.894Z,15.17
2023-05-25T15:21:30.694Z,20.63
2023-05-25T15:23:58.026Z,12.80
2023-05-25T15:26:33.183Z,17.97
2023-05-25T15:29:00.558Z,21.67
2023-05-25T15:31:27.800Z,11.87
2023-05-25T15:33:58.735Z,17.53
2023-05-25T15:36:33.778Z,13.73
2023-05-25T15:39:01.202Z,20.27
2023-05-25T15:41:28.802Z,12.50
2023-05-25T15:43:57.548Z,16.27
2023-05-25T15:46:24.856Z,20.73
2023-05-25T15:48:52.202Z,21.20
2023-05-25T15:51:41.480Z,15.63
2023-05-25T15:56:36.555Z,21.00
2023-05-25T15:59:06.003Z,23.00
2023-05-25T16:01:48.843Z,23.20
2023-05-25T16:04:40.918Z,17.53
2023-05-25T16:07:08.287Z,18.77
2023-05-25T16:09:35.600Z,19.60
2023-05-25T16:12:02.889Z,24.90
2023-05-25T16:14:46.702Z,17.50
2023-05-25T16:17:14.516Z,19.80
2023-05-25T16:19:42.183Z,21.77
2023-05-25T16:22:09.728Z,19.00
2023-05-25T16:24:37.019Z,19.00
2023-05-25T16:27:04.559Z,21.20
2023-05-25T16:29:32.018Z,17.60
2023-05-25T16:32:21.918Z,18.77
2023-05-25T16:35:08.421Z,17.03
2023-05-25T16:37:37.382Z,14.60
2023-05-25T16:40:04.915Z,16.63
2023-05-25T16:42:32.165Z,17.40
2023-05-25T16:44:59.438Z,20.20
2023-05-25T16:47:26.728Z,20.07
2023-05-25T16:49:53.987Z,19.07
2023-05-25T16:52:21.306Z,20.37
2023-05-25T16:54:49.872Z,21.97
2023-05-25T16:57:17.333Z,20.70
2023-05-25T16:59:44.637Z,14.97
2023-05-25T17:02:11.921Z,15.97
2023-05-25T17:04:39.219Z,19.90
2023-05-25T17:07:06.555Z,21.60
2023-05-25T17:09:33.851Z,22.33
2023-05-25T17:12:02.474Z,15.27
2023-05-25T17:14:29.897Z,16.97
2023-05-25T17:16:57.218Z,20.90
2023-05-25T17:19:24.511Z,18.87
2023-05-25T17:21:51.787Z,20.00
2023-05-25T17:24:19.035Z,19.87
2023-05-25T17:26:46.343Z,18.93
2023-05-25T17:29:14.935Z,15.33
2023-05-25T17:31:42.280Z,18.50
2023-05-25T17:34:09.677Z,17.93
2023-05-25T17:36:36.897Z,18.80
2023-05-25T17:39:04.275Z,16.17
2023-05-25T17:41:31.551Z,20.93
2023-05-25T17:43:58.814Z,13.23
2023-05-25T17:46:27.575Z,22.60
2023-05-25T17:48:54.997Z,23.20
2023-05-25T17:51:22.373Z,14.77
2023-05-25T17:53:49.772Z,16.57
2023-05-25T17:56:17.425Z,10.57
2023-05-25T17:58:44.968Z,22.03
2023-05-25T18:01:12.346Z,20.40
2023-05-25T18:03:41.162Z,12.43
2023-05-25T18:06:08.787Z,21.23
2023-05-25T18:08:35.996Z,17.70
2023-05-25T18:11:03.909Z,16.80
2023-05-25T18:13:31.178Z,16.33
2023-05-25T18:15:58.465Z,16.23
2023-05-25T18:18:25.710Z,15.67
2023-05-25T18:20:54.361Z,16.70
2023-05-25T18:23:21.629Z,20.53
2023-05-25T18:25:48.900Z,17.03
2023-05-25T18:28:16.205Z,22.80
2023-05-25T18:30:43.664Z,20.40
2023-05-25T18:33:11.027Z,15.40
2023-05-25T18:35:38.620Z,19.57
2023-05-25T18:38:07.322Z,18.07
2023-05-25T18:40:34.594Z,20.87
2023-05-25T18:43:01.890Z,19.33
2023-05-25T18:45:29.204Z,18.97
2023-05-25T18:47:56.476Z,17.97
2023-05-25T19:12:59.977Z,18.87
2023-05-25T19:15:27.351Z,19.93
2023-05-25T19:17:54.746Z,22.53
2023-05-25T19:20:22.018Z,15.87
2023-05-25T19:22:49.405Z,18.33
2023-05-25T19:25:31.902Z,21.63
2023-05-25T19:28:00.620Z,22.77
2023-05-25T19:30:27.910Z,18.97
2023-05-25T19:32:55.295Z,22.13
2023-05-25T19:35:26.542Z,18.27
2023-05-25T19:41:34.456Z,20.80
2023-05-25T19:44:03.070Z,16.83
2023-05-25T19:46:30.447Z,18.13
2023-05-25T19:48:57.757Z,18.20
2023-05-25T19:51:25.093Z,11.33
2023-05-25T19:53:52.477Z,14.13
2023-05-25T19:56:19.799Z,17.67
2023-05-25T19:58:47.093Z,16.77
2023-05-25T20:01:15.819Z,17.27
2023-05-25T20:03:43.407Z,21.60
2023-05-25T20:06:10.914Z,15.07
2023-05-25T20:08:38.347Z,13.60
2023-05-25T20:11:05.754Z,19.03
2023-05-25T20:13:33.042Z,20.97
2023-05-25T20:16:00.319Z,20.30
2023-05-25T20:18:29.028Z,18.00
2023-05-25T20:20:56.353Z,15.87
2023-05-25T20:23:23.679Z,20.53
2023-05-25T20:25:51.024Z,15.30
2023-05-25T20:28:18.438Z,16.23
2023-05-25T20:30:45.890Z,18.47
2023-05-25T20:33:13.255Z,20.20
2023-05-25T20:35:41.950Z,16.97
2023-05-25T20:38:09.338Z,21.17
2023-05-25T20:40:36.602Z,15.47
2023-05-25T20:43:04.043Z,18.73
2023-05-25T20:45:32.399Z,16.33
2023-05-25T20:48:00.036Z,19.97
2023-05-25T20:50:27.342Z,16.90
2023-05-25T20:52:56.193Z,24.10
2023-05-25T20:55:23.489Z,14.13
2023-05-25T20:57:50.734Z,22.70
2023-05-25T21:00:18.359Z,16.03
2023-05-25T21:02:45.762Z,15.80
2023-05-25T21:05:13.075Z,15.93
2023-05-25T21:07:40.393Z,15.43
2023-05-25T21:10:09.896Z,15.87
2023-05-25T21:12:37.179Z,12.97
2023-05-25T21:15:04.693Z,16.07
2023-05-25T21:17:32.033Z,16.13
2023-05-25T21:19:59.358Z,17.17
2023-05-25T21:22:26.618Z,17.47
2023-05-25T21:24:53.966Z,15.90
2023-05-25T21:27:22.652Z,21.53
2023-05-25T21:29:50.056Z,10.60
2023-05-25T21:32:17.402Z,18.57
2023-05-25T21:34:44.777Z,17.10
2023-05-25T21:37:12.115Z,15.83
2023-05-25T21:39:39.362Z,15.83
2023-05-25T21:42:06.840Z,17.33
2023-05-25T21:44:35.536Z,20.73
2023-05-25T21:47:02.999Z,13.47
2023-05-25T21:49:30.351Z,19.20
2023-05-25T21:51:57.670Z,28.97
2023-05-25T21:54:25.347Z,16.20
2023-05-25T21:56:52.908Z,19.80
2023-05-25T21:59:20.213Z,15.80
2023-05-25T22:01:48.927Z,14.27
2023-05-25T22:04:16.251Z,16.50
2023-05-25T22:06:43.503Z,16.73
2023-05-25T22:09:10.855Z,16.43
2023-05-25T22:11:38.099Z,22.70
2023-05-25T22:14:05.376Z,14.43
2023-05-25T22:16:32.741Z,22.13
2023-05-25T22:19:01.344Z,16.93
2023-05-25T22:21:28.748Z,20.20
2023-05-25T22:23:56.003Z,17.47
2023-05-25T22:26:23.385Z,19.63
2023-05-25T22:28:50.678Z,16.33
2023-05-25T22:31:18.053Z,21.00
2023-05-25T22:33:45.367Z,19.20
2023-05-25T22:36:14.061Z,20.20
2023-05-25T22:38:41.323Z,14.83
2023-05-25T22:41:08.940Z,20.70
2023-05-25T22:43:36.235Z,16.50
2023-05-25T22:46:03.546Z,20.73
2023-05-25T22:48:31.280Z,18.70
2023-05-25T22:50:58.746Z,14.77
2023-05-25T22:53:27.394Z,26.97
2023-05-25T22:55:54.662Z,17.77
2023-05-25T22:58:22.077Z,16.43
2023-05-25T23:00:49.363Z,21.20
2023-05-25T23:03:18.770Z,15.27
2023-05-25T23:05:46.473Z,17.47
2023-05-25T23:08:14.014Z,16.90
2023-05-25T23:10:42.654Z,14.47
2023-05-25T23:13:10.045Z,13.07
2023-05-25T23:15:37.387Z,12.03
2023-05-25T23:18:05.194Z,17.83
2023-05-25T23:20:32.603Z,16.00
2023-05-25T23:23:00.735Z,13.70
2023-05-25T23:25:28.014Z,20.50
2023-05-25T23:27:58.977Z,15.63
2023-05-25T23:30:29.223Z,19.20
2023-05-25T23:32:56.605Z,18.60
2023-05-25T23:35:23.918Z,18.53
2023-05-25T23:37:51.239Z,13.97
2023-05-25T23:40:18.769Z,17.93
2023-05-25T23:42:46.009Z,15.07
2023-05-25T23:45:14.665Z,18.70
2023-05-25T23:47:41.993Z,13.20
2023-05-25T23:50:09.644Z,20.37
2023-05-25T23:52:37.004Z,19.20
2023-05-25T23:57:46.799Z,19.83
